Pagina principală
METAR-TAF:

METAR-TAF

Aeroporturi :

Jasper, Alabama, Statele Unite ale Americii

Latitudine: 33-54-07N, longitudine: 087-18-51W, elevație: 147 m

Observații meteo curente

Raportul a fost făcut în urmă cu 25 de minute, la 22:15 UTC
Vânt 5 kt de la Vest/Nord-vest
Temperatură 34°C
Umiditate 39%
Presiune 1016 hPa
Vizibilitate: 16.1 km
Cer senin

METAR: KJFX 222215Z AUTO 30005KT 10SM CLR 34/18 A2999 RMK AO2

Ora: 17:40 (22:40 UTC)


TAF: lipsă

Observații și prognoze meteo pentru peste 4.000 de aeroporturi (rapoarte METAR și TAF).

Stațiile disponibile sunt reprezentate pe hartă prin puncte galbene și roșii.

Țineți indicatorul mouse-ului pe punctul dorit pentru a vedea denumirea stației.

Apoi, faceți clic pentru a vedea observațiile și prognozele meteorologice.

Pentru a schimba harta: Pentru mărire, faceți clic pe butoanele verzi cu cruce neagră; pentru micșorare, pe butonul verde cu o liniuță; pentru hărți învecinate, pe săgețile verzi.


METAR-TAF: